Terminal Aerodrome Forecast
Issued by NWS Midland/Odessa, TX

Home | Current Version | Previous Version | Text Only | Print | Product List | Glossary On
Versions: 1 2 3 4 5 6 7 8 9 10 11 12 13 14 15 16 17 18 19 20 21 22
000
FTUS44 KMAF 031100
TAFMAF
TAF
KMAF 031137Z 0312/0412 18009KT 2SM BR OVC010
      TEMPO 0312/0316 1/2SM FG OVC001
     FM031600 21008KT P6SM SCT040 BKN100
     FM032300 VRB05KT P6SM BKN050 OVC100
      TEMPO 0400/0404 6SM SHRA BR OVC035=

USA.gov is the U.S. government's official web portal to all federal, state and local government web resources and services.